createdAt,value
2018-04-07T00:02:25.319Z,95348
2018-04-07T00:04:53.374Z,95360
2018-04-07T00:07:21.435Z,95341
2018-04-07T00:09:49.563Z,95344
2018-04-07T00:12:17.618Z,95340
2018-04-07T00:14:45.709Z,95346
2018-04-07T00:17:13.784Z,95333
2018-04-07T00:19:42.626Z,95342
2018-04-07T00:22:12.573Z,95332
2018-04-07T00:24:40.631Z,95335
2018-04-07T00:27:08.688Z,95341
2018-04-07T00:29:37.514Z,95340
2018-04-07T00:32:05.574Z,95339
2018-04-07T00:34:33.642Z,95335
2018-04-07T00:37:02.458Z,95335
2018-04-07T00:39:30.521Z,95326
2018-04-07T00:41:58.578Z,95324
2018-04-07T00:44:27.410Z,95320
2018-04-07T00:46:55.457Z,95323
2018-04-07T00:49:24.301Z,95318
2018-04-07T00:51:52.398Z,95322
2018-04-07T00:54:20.475Z,95318
2018-04-07T00:56:48.538Z,95311
2018-04-07T00:59:16.605Z,95309
2018-04-07T01:01:44.690Z,95314
2018-04-07T01:04:12.778Z,95316
2018-04-07T01:06:40.838Z,95307
2018-04-07T01:09:08.906Z,95302
2018-04-07T01:11:36.954Z,95293
2018-04-07T01:14:05.062Z,95296
2018-04-07T01:16:33.134Z,95305
2018-04-07T01:19:01.206Z,95296
2018-04-07T01:21:29.266Z,95292
2018-04-07T01:23:57.321Z,95293
2018-04-07T01:26:26.170Z,95278
2018-04-07T01:28:54.235Z,95288
2018-04-07T01:31:22.286Z,95289
2018-04-07T01:33:50.370Z,95283
2018-04-07T01:36:18.426Z,95288
2018-04-07T01:38:46.478Z,95291
2018-04-07T01:41:15.341Z,95279
2018-04-07T01:43:43.400Z,95265
2018-04-07T01:46:11.534Z,95280
2018-04-07T01:48:39.561Z,95279
2018-04-07T01:51:07.613Z,95278
2018-04-07T01:53:35.673Z,95276
2018-04-07T01:56:04.518Z,95276
2018-04-07T01:58:32.581Z,95263
2018-04-07T02:01:00.662Z,95278
2018-04-07T02:03:28.723Z,95266
2018-04-07T02:05:56.769Z,95277
2018-04-07T02:08:24.830Z,95266
2018-04-07T02:10:53.781Z,95275
2018-04-07T02:13:21.870Z,95266
2018-04-07T02:15:49.946Z,95272
2018-04-07T02:18:18.003Z,95268
2018-04-07T02:20:46.090Z,95266
2018-04-07T02:23:14.167Z,95258
2018-04-07T02:25:43.238Z,95252
2018-04-07T02:28:11.297Z,95270
2018-04-07T02:30:40.151Z,95254
2018-04-07T02:33:08.219Z,95254
2018-04-07T02:35:36.279Z,95257
2018-04-07T02:38:04.358Z,95260
2018-04-07T02:40:32.437Z,95258
2018-04-07T02:43:00.534Z,95263
2018-04-07T02:45:28.582Z,95268
2018-04-07T02:47:56.648Z,95277
2018-04-07T02:50:24.744Z,95266
2018-04-07T02:52:53.535Z,95275
2018-04-07T02:55:21.598Z,95257
2018-04-07T02:57:50.307Z,95267
2018-04-07T03:00:18.367Z,95273
2018-04-07T03:02:46.419Z,95268
2018-04-07T03:05:14.538Z,95270
2018-04-07T03:07:43.713Z,95266
2018-04-07T03:10:11.789Z,95264
2018-04-07T03:12:39.833Z,95261
2018-04-07T03:15:08.661Z,95250
2018-04-07T03:17:36.758Z,95272
2018-04-07T03:20:04.841Z,95267
2018-04-07T03:22:32.898Z,95268
2018-04-07T03:25:00.970Z,95260
2018-04-07T03:27:29.062Z,95252
2018-04-07T03:29:57.122Z,95258
2018-04-07T03:32:25.255Z,95255
2018-04-07T03:34:54.107Z,95251
2018-04-07T03:37:22.158Z,95258
2018-04-07T03:39:50.231Z,95248
2018-04-07T03:42:18.269Z,95247
2018-04-07T03:44:46.330Z,95256
2018-04-07T03:47:14.382Z,95260
2018-04-07T03:49:42.442Z,95253
2018-04-07T03:52:10.518Z,95251
2018-04-07T03:54:38.616Z,95253
2018-04-07T03:57:06.666Z,95248
2018-04-07T03:59:34.739Z,95247
2018-04-07T04:02:02.790Z,95258
2018-04-07T04:04:31.624Z,95259
2018-04-07T04:06:59.714Z,95249
2018-04-07T04:09:27.779Z,95258
2018-04-07T04:11:55.837Z,95256
2018-04-07T04:14:23.893Z,95247
2018-04-07T04:16:52.469Z,95249
2018-04-07T04:19:20.542Z,95245
2018-04-07T04:21:48.687Z,95240
2018-04-07T04:24:16.757Z,95251
2018-04-07T04:26:44.808Z,95258
2018-04-07T04:29:12.872Z,95258
2018-04-07T04:31:41.712Z,95262
2018-04-07T04:34:09.786Z,95253
2018-04-07T04:36:37.864Z,95245
2018-04-07T04:39:06.805Z,95259
2018-04-07T04:41:35.630Z,95258
2018-04-07T04:44:03.686Z,95257
2018-04-07T04:46:31.730Z,95245
2018-04-07T04:48:59.794Z,95248
2018-04-07T04:51:27.846Z,95257
2018-04-07T04:53:55.905Z,95250
2018-04-07T04:56:24.014Z,95256
2018-04-07T04:58:52.305Z,95259
2018-04-07T05:01:20.464Z,95263
2018-04-07T05:03:48.564Z,95261
2018-04-07T05:06:16.610Z,95264
2018-04-07T05:08:45.330Z,95274
2018-04-07T05:11:13.486Z,95267
2018-04-07T05:13:41.541Z,95267
2018-04-07T05:16:09.597Z,95265
2018-04-07T05:18:38.405Z,95266
2018-04-07T05:21:06.535Z,95269
2018-04-07T05:23:35.105Z,95262
2018-04-07T05:26:03.182Z,95258
2018-04-07T05:28:31.233Z,95270
2018-04-07T05:30:59.298Z,95263
2018-04-07T05:33:27.405Z,95267
2018-04-07T05:35:55.586Z,95256
2018-04-07T05:38:23.634Z,95260
2018-04-07T05:40:52.475Z,95263
2018-04-07T05:43:20.534Z,95252
2018-04-07T05:45:48.649Z,95268
2018-04-07T05:48:16.686Z,95264
2018-04-07T05:50:45.880Z,95266
2018-04-07T05:53:13.925Z,95270
2018-04-07T05:55:42.008Z,95276
2018-04-07T05:58:10.115Z,95270
2018-04-07T06:00:38.186Z,95268
2018-04-07T06:03:06.233Z,95274
2018-04-07T06:05:34.345Z,95269
2018-04-07T06:08:02.398Z,95268
2018-04-07T06:10:30.458Z,95270
2018-04-07T06:12:58.566Z,95268
2018-04-07T06:15:26.635Z,95272
2018-04-07T06:17:54.702Z,95269
2018-04-07T06:20:22.774Z,95267
2018-04-07T06:22:50.920Z,95273
2018-04-07T06:25:18.930Z,95268
2018-04-07T06:27:47.006Z,95277
2018-04-07T06:30:16.178Z,95277
2018-04-07T06:32:46.150Z,95279
2018-04-07T06:35:14.207Z,95273
2018-04-07T06:37:42.301Z,95273
2018-04-07T06:40:10.386Z,95271
2018-04-07T06:42:38.462Z,95279
2018-04-07T06:45:06.514Z,95264
2018-04-07T06:47:34.609Z,95267
2018-04-07T06:50:02.670Z,95268
2018-04-07T06:52:30.754Z,95259
2018-04-07T06:54:58.848Z,95265
2018-04-07T06:57:26.909Z,95259
2018-04-07T06:59:54.993Z,95263
2018-04-07T07:02:23.058Z,95265
2018-04-07T07:04:51.619Z,95256
2018-04-07T07:07:19.658Z,95271
2018-04-07T07:09:48.522Z,95254
2018-04-07T07:12:16.703Z,95264
2018-04-07T07:14:44.879Z,95262
2018-04-07T07:17:12.962Z,95271
2018-04-07T07:19:41.126Z,95256
2018-04-07T07:22:09.199Z,95268
2018-04-07T07:24:37.247Z,95272
2018-04-07T07:27:05.328Z,95272
2018-04-07T07:29:33.419Z,95268
2018-04-07T07:32:01.516Z,95269
2018-04-07T07:34:29.616Z,95271
2018-04-07T07:36:58.436Z,95277
2018-04-07T07:39:27.266Z,95278
2018-04-07T07:41:55.355Z,95276
2018-04-07T07:44:23.414Z,95276
2018-04-07T07:46:53.122Z,95276
2018-04-07T07:49:21.226Z,95277
2018-04-07T07:51:49.402Z,95280
2018-04-07T07:54:17.465Z,95280
2018-04-07T07:56:45.554Z,95285
2018-04-07T07:59:13.617Z,95287
2018-04-07T08:01:41.677Z,95282
2018-04-07T08:04:09.730Z,95285
2018-04-07T08:06:39.808Z,95282
2018-04-07T08:09:07.954Z,95293
2018-04-07T08:11:36.023Z,95296
2018-04-07T08:14:04.133Z,95294
2018-04-07T08:16:32.317Z,95284
2018-04-07T08:19:00.387Z,95293
2018-04-07T08:21:28.462Z,95281
2018-04-07T08:23:56.528Z,95277
2018-04-07T08:26:24.606Z,95275
2018-04-07T08:28:52.665Z,95278
2018-04-07T08:31:20.749Z,95283
2018-04-07T08:33:48.903Z,95279
2018-04-07T08:36:17.762Z,95285
2018-04-07T08:38:45.825Z,95283
2018-04-07T08:41:13.997Z,95280
2018-04-07T08:43:42.058Z,95275
2018-04-07T08:46:10.150Z,95272
2018-04-07T08:48:38.224Z,95280
2018-04-07T08:51:06.387Z,95287
2018-04-07T08:53:34.347Z,95279
2018-04-07T08:56:02.454Z,95278
2018-04-07T08:58:30.511Z,95266
2018-04-07T09:00:58.602Z,95276
2018-04-07T09:03:26.698Z,95281
2018-04-07T09:05:54.766Z,95280
2018-04-07T09:08:22.938Z,95272
2018-04-07T09:10:52.138Z,95273
2018-04-07T09:13:20.209Z,95271
2018-04-07T09:15:48.446Z,95270
2018-04-07T09:18:18.417Z,95276
2018-04-07T09:20:46.495Z,95261
2018-04-07T09:23:14.574Z,95258
2018-04-07T09:25:42.652Z,95256
2018-04-07T09:28:10.723Z,95255
2018-04-07T09:30:38.797Z,95241
2018-04-07T09:33:07.902Z,95255
2018-04-07T09:35:35.971Z,95248
2018-04-07T09:38:04.046Z,95248
2018-04-07T09:40:32.134Z,95259
2018-04-07T09:43:00.194Z,95243
2018-04-07T09:45:28.261Z,95251
2018-04-07T09:47:56.358Z,95249
2018-04-07T09:50:24.426Z,95248
2018-04-07T09:52:52.510Z,95242
2018-04-07T09:55:20.686Z,95249
2018-04-07T09:57:48.766Z,95252
2018-04-07T10:00:16.846Z,95246
2018-04-07T10:02:44.909Z,95250
2018-04-07T10:05:13.125Z,95243
2018-04-07T10:07:42.099Z,95241
2018-04-07T10:10:10.157Z,95240
2018-04-07T10:12:38.226Z,95233
2018-04-07T10:15:06.291Z,95236
2018-04-07T10:17:34.349Z,95234
2018-04-07T10:20:02.418Z,95232
2018-04-07T10:22:31.271Z,95229
2018-04-07T10:24:59.329Z,95232
2018-04-07T10:27:27.422Z,95231
2018-04-07T10:29:55.486Z,95235
2018-04-07T10:32:23.556Z,95230
2018-04-07T10:34:52.266Z,95229
2018-04-07T10:37:20.442Z,95222
2018-04-07T10:39:49.241Z,95222
2018-04-07T10:42:17.409Z,95220
2018-04-07T10:44:45.486Z,95217
2018-04-07T10:47:13.560Z,95219
2018-04-07T10:49:42.306Z,95207
2018-04-07T10:52:11.130Z,95206
2018-04-07T10:54:39.228Z,95207
2018-04-07T10:57:07.310Z,95202
2018-04-07T10:59:35.491Z,95198
2018-04-07T11:02:03.669Z,95202
2018-04-07T11:04:31.862Z,95195
2018-04-07T11:07:00.015Z,95192
2018-04-07T11:09:28.100Z,95184
2018-04-07T11:11:56.273Z,95188
2018-04-07T11:14:24.454Z,95184
2018-04-07T11:16:52.506Z,95180
2018-04-07T11:19:20.569Z,95180
2018-04-07T11:21:49.749Z,95171
2018-04-07T11:24:19.718Z,95170
2018-04-07T11:26:47.794Z,95172
2018-04-07T11:29:15.853Z,95165
2018-04-07T11:31:43.926Z,95159
2018-04-07T11:34:12.022Z,95165
2018-04-07T11:36:40.106Z,95163
2018-04-07T11:39:08.165Z,95161
2018-04-07T11:41:36.233Z,95161
2018-04-07T11:44:04.306Z,95158
2018-04-07T11:46:32.396Z,95155
2018-04-07T11:49:00.454Z,95148
2018-04-07T11:51:28.569Z,95148
2018-04-07T11:53:56.730Z,95139
2018-04-07T11:56:24.822Z,95140
2018-04-07T11:58:52.869Z,95139
2018-04-07T12:01:20.988Z,95140
2018-04-07T12:03:50.185Z,95140
2018-04-07T12:06:18.350Z,95128
2018-04-07T12:08:46.434Z,95133
2018-04-07T12:11:14.521Z,95130
2018-04-07T12:13:42.574Z,95138
2018-04-07T12:16:10.647Z,95135
2018-04-07T12:18:38.702Z,95136
2018-04-07T12:21:06.767Z,95123
2018-04-07T12:23:34.882Z,95124
2018-04-07T12:26:02.956Z,95124
2018-04-07T12:28:31.017Z,95114
2018-04-07T12:30:59.074Z,95120
2018-04-07T12:33:27.202Z,95114
2018-04-07T12:35:55.262Z,95103
2018-04-07T12:38:23.437Z,95100
2018-04-07T12:40:52.456Z,95102
2018-04-07T12:43:20.928Z,95101
2018-04-07T12:45:49.146Z,95108
2018-04-07T12:48:18.000Z,95103
2018-04-07T12:50:46.097Z,95107
2018-04-07T12:53:14.253Z,95103
2018-04-07T12:55:42.325Z,95094
2018-04-07T12:58:10.415Z,95095
2018-04-07T13:00:38.470Z,95095
2018-04-07T13:03:06.590Z,95097
2018-04-07T13:05:34.744Z,95094
2018-04-07T13:08:02.841Z,95094
2018-04-07T13:10:30.993Z,95089
2018-04-07T13:12:59.073Z,95083
2018-04-07T13:15:27.142Z,95087
2018-04-07T13:17:55.210Z,95085
2018-04-07T13:20:23.265Z,95085
2018-04-07T13:22:52.414Z,95087
2018-04-07T13:25:21.403Z,95077
2018-04-07T13:27:49.478Z,95080
2018-04-07T13:30:17.538Z,95084
2018-04-07T13:32:45.606Z,95073
2018-04-07T13:35:13.706Z,95074
2018-04-07T13:37:41.777Z,95072
2018-04-07T13:40:09.862Z,95074
2018-04-07T13:42:37.922Z,95059
2018-04-07T13:45:05.974Z,95063
2018-04-07T13:47:34.042Z,95066
2018-04-07T13:50:02.158Z,95053
2018-04-07T13:52:30.334Z,95058
2018-04-07T13:54:58.418Z,95049
2018-04-07T13:57:26.502Z,95051
2018-04-07T13:59:54.574Z,95044
2018-04-07T14:02:22.634Z,95040
2018-04-07T14:04:52.466Z,95033
2018-04-07T14:07:21.661Z,95035
2018-04-07T14:09:49.739Z,95023
2018-04-07T14:12:17.926Z,95038
2018-04-07T14:14:45.989Z,95027
2018-04-07T14:17:14.282Z,95031
2018-04-07T14:19:42.350Z,95018
2018-04-07T14:22:10.526Z,95019
2018-04-07T14:24:38.630Z,95007
2018-04-07T14:27:06.698Z,95023
2018-04-07T14:29:35.536Z,95018
2018-04-07T14:32:03.601Z,95018
2018-04-07T14:34:32.450Z,95016
2018-04-07T14:37:00.523Z,95018
2018-04-07T14:39:28.583Z,95017
2018-04-07T14:41:56.652Z,95014
2018-04-07T14:44:25.541Z,95011
2018-04-07T14:46:53.550Z,95004
2018-04-07T14:49:23.257Z,95004
2018-04-07T14:51:52.455Z,95008
2018-04-07T14:54:20.537Z,94999
2018-04-07T14:56:48.590Z,95000
2018-04-07T14:59:16.657Z,94990
2018-04-07T15:01:44.724Z,94998
2018-04-07T15:04:12.846Z,94990
2018-04-07T15:06:40.904Z,94994
2018-04-07T15:09:08.990Z,94983
2018-04-07T15:11:37.084Z,94998
2018-04-07T15:14:05.141Z,94990
2018-04-07T15:16:33.213Z,94992
2018-04-07T15:19:01.301Z,94993
2018-04-07T15:21:29.378Z,94990
2018-04-07T15:23:57.438Z,94986
2018-04-07T15:26:25.662Z,94990
2018-04-07T15:28:53.726Z,94974
2018-04-07T15:31:21.794Z,94984
2018-04-07T15:33:49.866Z,94980
2018-04-07T15:36:17.922Z,94987
2018-04-07T15:38:45.998Z,94978
2018-04-07T15:41:14.090Z,94978
2018-04-07T15:43:42.231Z,94975
2018-04-07T15:46:10.338Z,94979
2018-04-07T15:48:38.405Z,94981
2018-04-07T15:51:06.515Z,94981
2018-04-07T15:53:35.291Z,94978
2018-04-07T15:56:03.345Z,94973
2018-04-07T15:58:31.561Z,94964
2018-04-07T16:01:00.227Z,94967
2018-04-07T16:03:28.637Z,94968
2018-04-07T16:05:56.705Z,94966
2018-04-07T16:08:25.909Z,94970
2018-04-07T16:10:53.957Z,94968
2018-04-07T16:13:22.994Z,94970
2018-04-07T16:15:51.142Z,94969
2018-04-07T16:18:19.214Z,94966
2018-04-07T16:20:47.273Z,94964
2018-04-07T16:23:15.342Z,94969
2018-04-07T16:25:43.390Z,94972
2018-04-07T16:28:12.321Z,94965
2018-04-07T16:30:40.387Z,94960
2018-04-07T16:33:08.471Z,94958
2018-04-07T16:35:36.517Z,94965
2018-04-07T16:38:05.341Z,94967
2018-04-07T16:40:33.442Z,94952
2018-04-07T16:43:01.501Z,94958
2018-04-07T16:45:29.563Z,94968
2018-04-07T16:47:57.638Z,94965
2018-04-07T16:50:26.618Z,94965
2018-04-07T16:52:56.578Z,94966
2018-04-07T16:55:24.639Z,94965
2018-04-07T16:57:52.741Z,94969
2018-04-07T17:00:20.810Z,94950
2018-04-07T17:02:48.898Z,94958
2018-04-07T17:05:16.979Z,94953
2018-04-07T17:07:45.151Z,94957
2018-04-07T17:10:13.256Z,94955
2018-04-07T17:12:41.347Z,94960
2018-04-07T17:15:09.394Z,94953
2018-04-07T17:17:37.549Z,94958
2018-04-07T17:20:05.627Z,94959
2018-04-07T17:22:33.682Z,94962
2018-04-07T17:25:01.751Z,94961
2018-04-07T17:27:29.867Z,94960
2018-04-07T17:29:57.945Z,94962
2018-04-07T17:32:27.146Z,94967
2018-04-07T17:34:55.221Z,94969
2018-04-07T17:37:23.298Z,94972
2018-04-07T17:39:52.494Z,94962
2018-04-07T17:42:20.574Z,94965
2018-04-07T17:44:48.643Z,94972
2018-04-07T17:47:16.707Z,94968
2018-04-07T17:49:44.854Z,94972
2018-04-07T17:52:12.878Z,94971
2018-04-07T17:54:41.055Z,94973
2018-04-07T17:57:09.109Z,94980
2018-04-07T17:59:37.214Z,94975
2018-04-07T18:02:05.282Z,94972
2018-04-07T18:04:33.376Z,94986
2018-04-07T18:07:01.458Z,94976
2018-04-07T18:09:29.535Z,94975
2018-04-07T18:11:58.393Z,94974
2018-04-07T18:14:27.596Z,94974
2018-04-07T18:16:55.654Z,94987
2018-04-07T18:19:23.776Z,94996
2018-04-07T18:21:52.480Z,94990
2018-04-07T18:24:20.638Z,94983
2018-04-07T18:26:48.806Z,94977
2018-04-07T18:29:16.878Z,94984
2018-04-07T18:31:44.972Z,94983
2018-04-07T18:34:13.046Z,94987
2018-04-07T18:36:41.239Z,94989
2018-04-07T18:39:09.313Z,94983
2018-04-07T18:41:37.490Z,94987
2018-04-07T18:44:06.319Z,94986
2018-04-07T18:46:35.166Z,94995
2018-04-07T18:49:03.265Z,94994
2018-04-07T18:51:31.326Z,94994
2018-04-07T18:54:00.921Z,94998
2018-04-07T18:56:29.111Z,94999
2018-04-07T18:58:59.225Z,94995
2018-04-07T19:01:28.471Z,94999
2018-04-07T19:03:58.414Z,95007
2018-04-07T19:06:26.490Z,95006
2018-04-07T19:08:54.558Z,95001
2018-04-07T19:11:22.621Z,95000
2018-04-07T19:13:52.589Z,95006
2018-04-07T19:16:20.679Z,94996
2018-04-07T19:18:48.858Z,95000
2018-04-07T19:21:16.945Z,94990
2018-04-07T19:23:45.006Z,94997
2018-04-07T19:26:13.895Z,94990
2018-04-07T19:28:41.991Z,94999
2018-04-07T19:31:10.042Z,94993
2018-04-07T19:33:38.127Z,94994
2018-04-07T19:36:06.245Z,94986
2018-04-07T19:38:35.098Z,94990
2018-04-07T19:41:03.185Z,94983
2018-04-07T19:43:31.254Z,94977
2018-04-07T19:45:59.333Z,94981
2018-04-07T19:48:27.406Z,94985
2018-04-07T19:50:55.592Z,94990
2018-04-07T19:53:23.650Z,94990
2018-04-07T19:55:52.478Z,94986
2018-04-07T19:58:21.301Z,94983
2018-04-07T20:00:49.373Z,94979
2018-04-07T20:03:18.224Z,94986
2018-04-07T20:05:46.262Z,94982
2018-04-07T20:08:14.394Z,94977
2018-04-07T20:10:42.467Z,94988
2018-04-07T20:13:10.575Z,94972
2018-04-07T20:15:39.236Z,94972
2018-04-07T20:18:07.305Z,94972
2018-04-07T20:20:36.190Z,94973
2018-04-07T20:23:04.253Z,94971
2018-04-07T20:25:32.416Z,94968
2018-04-07T20:28:00.489Z,94972
2018-04-07T20:30:30.130Z,94971
2018-04-07T20:32:59.334Z,94970
2018-04-07T20:35:27.390Z,94968
2018-04-07T20:37:56.242Z,94973
2018-04-07T20:40:25.078Z,94971
2018-04-07T20:42:53.154Z,94969
2018-04-07T20:45:21.218Z,94960
2018-04-07T20:47:49.295Z,94961
2018-04-07T20:50:17.362Z,94968
2018-04-07T20:52:45.446Z,94960
2018-04-07T20:55:13.542Z,94963
2018-04-07T20:57:41.614Z,94963
2018-04-07T21:00:09.676Z,94962
2018-04-07T21:02:37.847Z,94964
2018-04-07T21:05:05.942Z,94954
2018-04-07T21:07:34.046Z,94958
2018-04-07T21:10:02.147Z,94962
2018-04-07T21:12:30.995Z,94956
2018-04-07T21:15:00.403Z,94956
2018-04-07T21:17:29.609Z,94956
2018-04-07T21:19:57.669Z,94948
2018-04-07T21:22:25.752Z,94957
2018-04-07T21:24:53.851Z,94945
2018-04-07T21:27:21.922Z,94949
2018-04-07T21:29:49.991Z,94956
2018-04-07T21:32:18.062Z,94951
2018-04-07T21:34:46.770Z,94948
2018-04-07T21:37:14.938Z,94942
2018-04-07T21:39:43.118Z,94937
2018-04-07T21:42:11.178Z,94937
2018-04-07T21:44:39.281Z,94935
2018-04-07T21:47:07.454Z,94937
2018-04-07T21:49:35.530Z,94940
2018-04-07T21:52:03.605Z,94930
2018-04-07T21:54:31.678Z,94931
2018-04-07T21:56:59.982Z,94939
2018-04-07T21:59:28.042Z,94938
2018-04-07T22:01:56.211Z,94934
2018-04-07T22:04:24.406Z,94934
2018-04-07T22:06:52.478Z,94946
2018-04-07T22:09:20.537Z,94941
2018-04-07T22:11:48.607Z,94941
2018-04-07T22:14:16.672Z,94939
2018-04-07T22:16:44.743Z,94941
2018-04-07T22:19:12.805Z,94938
2018-04-07T22:21:41.647Z,94945
2018-04-07T22:24:09.711Z,94933
2018-04-07T22:26:37.790Z,94945
2018-04-07T22:29:05.842Z,94942
2018-04-07T22:31:33.906Z,94959
2018-04-07T22:34:01.971Z,94947
2018-04-07T22:36:30.230Z,94946
2018-04-07T22:39:00.913Z,94957
2018-04-07T22:41:30.114Z,94940
2018-04-07T22:43:58.165Z,94958
2018-04-07T22:46:27.005Z,94947
2018-04-07T22:48:55.053Z,94949
2018-04-07T22:51:23.120Z,94950
2018-04-07T22:53:53.710Z,94938
2018-04-07T22:56:23.238Z,94950
2018-04-07T22:58:52.325Z,94945
2018-04-07T23:01:20.486Z,94942
2018-04-07T23:03:48.545Z,94946
2018-04-07T23:06:16.625Z,94957
2018-04-07T23:08:44.714Z,94940
2018-04-07T23:11:12.790Z,94935
2018-04-07T23:13:40.974Z,94942
2018-04-07T23:16:09.035Z,94930
2018-04-07T23:18:37.131Z,94936
2018-04-07T23:21:05.201Z,94925
2018-04-07T23:23:33.269Z,94924
2018-04-07T23:26:01.323Z,94918
2018-04-07T23:28:31.370Z,94921
2018-04-07T23:31:01.310Z,94912
2018-04-07T23:33:30.495Z,94914
2018-04-07T23:35:58.549Z,94912
2018-04-07T23:38:26.622Z,94904
2018-04-07T23:40:55.224Z,94906
2018-04-07T23:43:23.289Z,94896
2018-04-07T23:45:52.309Z,94902
2018-04-07T23:48:20.490Z,94905
2018-04-07T23:50:48.546Z,94898
2018-04-07T23:53:16.617Z,94902
2018-04-07T23:55:44.710Z,94903
2018-04-07T23:58:12.794Z,94888
